createdAt,value
2022-11-09T00:01:32.953Z,8.70
2022-11-09T00:04:02.413Z,8.65
2022-11-09T00:06:30.892Z,8.68
2022-11-09T00:09:06.812Z,8.70
2022-11-09T00:11:35.596Z,8.64
2022-11-09T00:14:03.525Z,8.65
2022-11-09T00:16:31.621Z,8.61
2022-11-09T00:19:00.044Z,8.71
2022-11-09T00:21:27.985Z,8.71
2022-11-09T00:23:55.987Z,8.73
2022-11-09T00:26:26.323Z,8.69
2022-11-09T00:28:54.334Z,8.75
2022-11-09T00:31:24.575Z,8.85
2022-11-09T00:33:53.925Z,8.96
2022-11-09T00:36:23.091Z,8.90
2022-11-09T00:38:53.073Z,9.03
2022-11-09T00:41:21.581Z,9.06
2022-11-09T00:43:51.619Z,9.01
2022-11-09T00:46:20.668Z,9.04
2022-11-09T00:48:48.734Z,9.15
2022-11-09T00:51:16.710Z,9.02
2022-11-09T00:53:47.178Z,9.22
2022-11-09T00:56:15.160Z,9.26
2022-11-09T00:58:43.093Z,9.32
2022-11-09T01:01:14.922Z,9.24
2022-11-09T01:03:43.197Z,9.22
2022-11-09T01:06:15.998Z,9.20
2022-11-09T01:08:43.941Z,9.14
2022-11-09T01:11:12.654Z,9.07
2022-11-09T01:13:41.397Z,8.94
2022-11-09T01:16:11.999Z,8.82
2022-11-09T01:18:41.725Z,8.90
2022-11-09T01:21:12.490Z,9.03
2022-11-09T01:23:42.849Z,9.20
2022-11-09T01:26:12.964Z,9.12
2022-11-09T01:28:41.228Z,9.32
2022-11-09T01:31:11.911Z,9.41
2022-11-09T01:33:41.493Z,9.45
2022-11-09T01:36:12.270Z,9.45
2022-11-09T01:38:40.857Z,9.32
2022-11-09T01:41:10.536Z,9.20
2022-11-09T01:43:38.525Z,9.25
2022-11-09T01:46:14.748Z,9.41
2022-11-09T01:48:49.672Z,9.26
2022-11-09T01:51:25.203Z,9.27
2022-11-09T01:53:57.327Z,9.36
2022-11-09T01:56:25.705Z,9.38
2022-11-09T01:58:58.689Z,9.38
2022-11-09T02:01:26.868Z,9.37
2022-11-09T02:04:01.062Z,9.27
2022-11-09T02:06:30.298Z,9.16
2022-11-09T02:09:08.267Z,9.08
2022-11-09T02:11:37.871Z,9.17
2022-11-09T02:14:08.063Z,9.05
2022-11-09T02:16:36.478Z,9.17
2022-11-09T02:19:05.807Z,9.22
2022-11-09T02:21:35.467Z,9.23
2022-11-09T02:24:03.466Z,9.34
2022-11-09T02:26:35.716Z,9.44
2022-11-09T02:29:06.710Z,9.22
2022-11-09T02:31:38.766Z,9.26
2022-11-09T02:34:09.902Z,9.28
2022-11-09T02:36:39.231Z,9.28
2022-11-09T02:39:07.991Z,9.25
2022-11-09T02:41:40.058Z,9.20
2022-11-09T02:44:07.972Z,9.15
2022-11-09T02:46:37.781Z,9.10
2022-11-09T02:49:06.179Z,8.98
2022-11-09T02:51:34.187Z,8.92
2022-11-09T02:54:03.570Z,8.92
2022-11-09T02:56:31.495Z,8.86
2022-11-09T02:58:59.412Z,8.82
2022-11-09T03:01:27.492Z,8.75
2022-11-09T03:03:55.511Z,8.78
2022-11-09T03:06:34.463Z,8.72
2022-11-09T03:09:05.765Z,8.65
2022-11-09T03:11:34.154Z,8.53
2022-11-09T03:14:02.131Z,8.53
2022-11-09T03:16:30.474Z,8.50
2022-11-09T03:18:58.937Z,8.48
2022-11-09T03:21:26.865Z,8.38
2022-11-09T03:23:55.199Z,8.31
2022-11-09T03:26:24.717Z,8.17
2022-11-09T03:28:52.735Z,8.14
2022-11-09T03:31:20.733Z,8.09
2022-11-09T03:33:48.664Z,8.05
2022-11-09T03:36:16.635Z,7.96
2022-11-09T03:38:44.565Z,7.94
2022-11-09T03:41:12.491Z,7.89
2022-11-09T03:43:41.757Z,7.83
2022-11-09T03:46:09.701Z,7.80
2022-11-09T03:48:37.616Z,7.75
2022-11-09T03:51:05.630Z,7.70
2022-11-09T03:53:33.546Z,7.61
2022-11-09T03:56:01.463Z,7.66
2022-11-09T03:58:29.396Z,7.66
2022-11-09T04:00:58.729Z,7.65
2022-11-09T04:03:26.744Z,7.57
2022-11-09T04:05:54.662Z,7.53
2022-11-09T04:08:22.573Z,7.45
2022-11-09T04:10:50.487Z,7.39
2022-11-09T04:13:18.713Z,7.13
2022-11-09T04:15:46.901Z,7.23
2022-11-09T04:18:18.260Z,7.29
2022-11-09T04:20:46.164Z,7.35
2022-11-09T04:23:15.105Z,7.41
2022-11-09T04:25:43.842Z,7.39
2022-11-09T04:28:13.597Z,7.50
2022-11-09T04:30:41.568Z,7.58
2022-11-09T04:33:11.175Z,7.57
2022-11-09T04:35:40.482Z,7.55
2022-11-09T04:38:15.185Z,7.61
2022-11-09T04:40:43.402Z,7.60
2022-11-09T04:43:14.033Z,7.59
2022-11-09T04:45:41.992Z,7.55
2022-11-09T04:48:12.197Z,7.57
2022-11-09T04:50:41.505Z,7.58
2022-11-09T04:53:10.992Z,7.60
2022-11-09T04:55:40.074Z,7.60
2022-11-09T04:58:08.382Z,7.71
2022-11-09T05:00:37.015Z,7.84
2022-11-09T05:03:07.321Z,7.79
2022-11-09T05:05:35.748Z,7.83
2022-11-09T05:08:06.556Z,7.77
2022-11-09T05:10:34.864Z,7.71
2022-11-09T05:13:04.747Z,7.60
2022-11-09T05:15:33.378Z,7.53
2022-11-09T05:18:01.748Z,7.51
2022-11-09T05:20:30.173Z,7.51
2022-11-09T05:23:16.405Z,7.46
2022-11-09T05:25:46.172Z,7.41
2022-11-09T05:28:14.318Z,7.28
2022-11-09T05:30:42.354Z,7.28
2022-11-09T05:33:10.332Z,7.31
2022-11-09T05:35:38.256Z,7.31
2022-11-09T05:38:06.257Z,7.47
2022-11-09T05:40:34.777Z,7.45
2022-11-09T05:43:04.056Z,7.54
2022-11-09T05:45:47.269Z,7.57
2022-11-09T05:48:16.929Z,7.66
2022-11-09T05:50:45.442Z,7.66
2022-11-09T05:53:13.732Z,7.71
2022-11-09T05:55:41.711Z,7.84
2022-11-09T05:58:11.323Z,7.89
2022-11-09T06:00:39.719Z,8.06
2022-11-09T06:03:09.101Z,8.11
2022-11-09T06:05:38.275Z,8.21
2022-11-09T06:08:07.447Z,8.29
2022-11-09T06:10:35.936Z,8.42
2022-11-09T06:13:04.156Z,8.47
2022-11-09T06:15:34.212Z,8.59
2022-11-09T06:18:02.292Z,8.71
2022-11-09T06:20:30.669Z,8.80
2022-11-09T06:23:03.035Z,8.87
2022-11-09T06:25:33.040Z,9.01
2022-11-09T06:28:01.509Z,9.07
2022-11-09T06:30:29.607Z,9.26
2022-11-09T06:33:03.597Z,9.36
2022-11-09T06:35:31.832Z,9.45
2022-11-09T06:38:00.848Z,9.52
2022-11-09T06:40:29.771Z,9.57
2022-11-09T06:42:59.554Z,9.68
2022-11-09T06:45:28.855Z,9.75
2022-11-09T06:47:57.694Z,9.88
2022-11-09T06:50:28.018Z,10.00
2022-11-09T06:52:58.033Z,10.14
2022-11-09T06:55:26.116Z,10.32
2022-11-09T06:57:54.318Z,10.46
2022-11-09T07:00:23.228Z,10.63
2022-11-09T07:02:51.225Z,10.84
2022-11-09T07:05:19.229Z,10.90
2022-11-09T07:07:48.534Z,11.08
2022-11-09T07:10:17.304Z,11.13
2022-11-09T07:12:45.470Z,11.31
2022-11-09T07:15:13.813Z,11.44
2022-11-09T07:17:42.115Z,11.40
2022-11-09T07:20:12.227Z,11.43
2022-11-09T07:22:40.315Z,11.52
2022-11-09T07:25:11.728Z,11.58
2022-11-09T07:27:39.773Z,11.71
2022-11-09T07:30:09.145Z,11.95
2022-11-09T07:33:07.568Z,12.15
2022-11-09T07:35:26.068Z,12.38
2022-11-09T07:37:54.049Z,12.50
2022-11-09T07:40:23.352Z,12.50
2022-11-09T07:42:51.245Z,12.52
2022-11-09T07:45:19.221Z,12.55
2022-11-09T07:47:47.156Z,12.66
2022-11-09T07:50:15.166Z,12.76
2022-11-09T07:52:43.064Z,12.90
2022-11-09T07:55:11.190Z,12.93
2022-11-09T07:57:40.477Z,13.16
2022-11-09T08:00:09.931Z,13.30
2022-11-09T08:02:38.263Z,13.41
2022-11-09T08:05:07.437Z,13.25
2022-11-09T08:07:35.337Z,13.28
2022-11-09T08:10:03.526Z,13.31
2022-11-09T08:12:36.760Z,13.28
2022-11-09T08:15:07.826Z,13.40
2022-11-09T08:17:35.775Z,13.23
2022-11-09T08:20:04.161Z,13.50
2022-11-09T08:22:32.090Z,13.46
2022-11-09T08:25:00.035Z,13.47
2022-11-09T08:27:34.469Z,13.68
2022-11-09T08:30:02.385Z,13.77
2022-11-09T08:32:31.700Z,13.65
2022-11-09T08:34:59.616Z,13.68
2022-11-09T08:37:27.969Z,13.82
2022-11-09T08:39:55.919Z,13.74
2022-11-09T08:42:23.891Z,13.91
2022-11-09T08:44:51.902Z,13.91
2022-11-09T08:47:19.867Z,13.87
2022-11-09T08:49:49.183Z,13.90
2022-11-09T08:52:17.829Z,14.02
2022-11-09T08:54:45.770Z,13.81
2022-11-09T08:57:13.751Z,13.87
2022-11-09T08:59:41.708Z,13.76
2022-11-09T09:02:11.233Z,14.03
2022-11-09T09:04:39.233Z,14.12
2022-11-09T09:07:09.025Z,14.20
2022-11-09T09:09:38.275Z,14.23
2022-11-09T09:12:07.406Z,14.37
2022-11-09T09:14:35.807Z,14.49
2022-11-09T09:17:03.749Z,14.26
2022-11-09T09:19:32.120Z,14.43
2022-11-09T09:22:00.527Z,14.53
2022-11-09T09:24:29.933Z,14.31
2022-11-09T09:26:57.897Z,14.55
2022-11-09T09:29:25.875Z,14.50
2022-11-09T09:31:53.831Z,14.53
2022-11-09T09:34:21.776Z,14.53
2022-11-09T09:36:49.778Z,14.66
2022-11-09T09:39:17.743Z,14.74
2022-11-09T09:41:53.990Z,14.81
2022-11-09T09:44:28.894Z,14.99
2022-11-09T09:47:06.076Z,15.06
2022-11-09T09:49:38.320Z,15.16
2022-11-09T09:52:14.337Z,15.27
2022-11-09T09:54:50.176Z,15.25
2022-11-09T09:57:23.883Z,15.43
2022-11-09T09:59:54.147Z,15.47
2022-11-09T10:02:26.843Z,15.55
2022-11-09T10:04:57.618Z,15.46
2022-11-09T10:07:30.528Z,15.68
2022-11-09T10:10:18.703Z,15.48
2022-11-09T10:12:59.721Z,15.73
2022-11-09T10:15:34.858Z,15.72
2022-11-09T10:18:19.623Z,15.66
2022-11-09T10:21:08.698Z,15.60
2022-11-09T10:23:45.176Z,15.70
2022-11-09T10:26:20.169Z,15.68
2022-11-09T10:29:14.990Z,15.76
2022-11-09T10:31:43.802Z,15.74
2022-11-09T10:34:19.306Z,15.84
2022-11-09T10:36:54.458Z,15.55
2022-11-09T10:39:26.038Z,15.46
2022-11-09T10:41:54.014Z,15.54
2022-11-09T10:44:23.821Z,15.54
2022-11-09T10:47:07.365Z,15.57
2022-11-09T10:49:35.975Z,15.67
2022-11-09T10:52:05.026Z,15.66
2022-11-09T10:54:35.491Z,15.69
2022-11-09T10:57:12.725Z,15.79
2022-11-09T10:59:47.077Z,15.80
2022-11-09T11:02:42.527Z,15.89
2022-11-09T11:05:32.660Z,15.81
2022-11-09T11:08:22.021Z,15.86
2022-11-09T11:10:58.475Z,15.90
2022-11-09T11:13:34.809Z,15.85
2022-11-09T11:16:25.205Z,15.96
2022-11-09T11:18:53.196Z,15.92
2022-11-09T11:21:22.788Z,16.07
2022-11-09T11:24:13.024Z,16.15
2022-11-09T11:26:47.771Z,16.11
2022-11-09T11:29:30.600Z,16.09
2022-11-09T11:31:59.926Z,16.02
2022-11-09T11:34:58.103Z,16.16
2022-11-09T11:37:31.782Z,16.21
2022-11-09T11:40:03.205Z,16.16
2022-11-09T11:42:52.877Z,16.18
2022-11-09T11:45:41.652Z,16.26
2022-11-09T11:48:42.956Z,16.17
2022-11-09T11:51:18.261Z,16.25
2022-11-09T11:53:59.317Z,16.22
2022-11-09T11:56:32.738Z,16.21
2022-11-09T11:59:17.106Z,16.30
2022-11-09T12:01:59.792Z,16.07
2022-11-09T12:04:43.006Z,16.20
2022-11-09T12:07:22.563Z,16.47
2022-11-09T12:10:04.892Z,16.56
2022-11-09T12:12:43.636Z,16.62
2022-11-09T12:15:31.383Z,16.57
2022-11-09T12:18:11.111Z,16.58
2022-11-09T12:20:44.612Z,16.50
2022-11-09T12:23:35.061Z,16.52
2022-11-09T12:26:17.927Z,16.53
2022-11-09T12:29:04.166Z,16.47
2022-11-09T12:31:41.243Z,16.46
2022-11-09T12:34:18.791Z,16.38
2022-11-09T12:36:55.732Z,16.45
2022-11-09T12:39:31.496Z,16.52
2022-11-09T12:42:05.231Z,16.62
2022-11-09T12:44:36.583Z,16.69
2022-11-09T12:47:11.443Z,16.61
2022-11-09T12:49:41.804Z,16.48
2022-11-09T12:52:14.053Z,16.53
2022-11-09T12:54:47.709Z,16.61
2022-11-09T12:57:22.572Z,16.41
2022-11-09T12:59:53.339Z,16.56
2022-11-09T13:02:28.611Z,16.48
2022-11-09T13:04:59.195Z,16.46
2022-11-09T13:07:49.849Z,16.45
2022-11-09T13:10:38.391Z,16.40
2022-11-09T13:13:22.686Z,16.51
2022-11-09T13:16:10.379Z,16.45
2022-11-09T13:18:52.705Z,16.36
2022-11-09T13:21:40.460Z,16.37
2022-11-09T13:24:54.397Z,16.47
2022-11-09T13:27:42.250Z,16.38
2022-11-09T13:30:41.662Z,16.40
2022-11-09T13:33:28.597Z,16.21
2022-11-09T13:36:15.003Z,16.36
2022-11-09T13:38:43.253Z,16.32
2022-11-09T13:41:41.761Z,16.31
2022-11-09T13:44:19.248Z,16.28
2022-11-09T13:46:49.845Z,16.25
2022-11-09T13:49:42.236Z,16.21
2022-11-09T13:52:49.327Z,16.31
2022-11-09T13:55:31.778Z,16.16
2022-11-09T13:58:04.772Z,16.14
2022-11-09T14:00:34.387Z,15.99
2022-11-09T14:03:06.742Z,16.04
2022-11-09T14:05:37.745Z,16.15
2022-11-09T14:08:06.615Z,16.15
2022-11-09T14:10:52.555Z,16.07
2022-11-09T14:13:41.857Z,16.04
2022-11-09T14:16:22.478Z,15.85
2022-11-09T14:19:08.424Z,15.76
2022-11-09T14:21:45.194Z,15.73
2022-11-09T14:24:19.165Z,15.66
2022-11-09T14:27:13.969Z,15.68
2022-11-09T14:29:54.317Z,15.63
2022-11-09T14:32:30.261Z,15.55
2022-11-09T14:35:28.461Z,15.59
2022-11-09T14:37:58.758Z,15.46
2022-11-09T14:40:28.572Z,15.36
2022-11-09T14:43:00.891Z,15.44
2022-11-09T14:45:29.322Z,15.50
2022-11-09T14:48:00.837Z,15.43
2022-11-09T14:50:32.270Z,15.41
2022-11-09T14:53:02.322Z,15.37
2022-11-09T14:55:31.734Z,15.26
2022-11-09T14:58:00.104Z,15.21
2022-11-09T15:00:33.101Z,15.18
2022-11-09T15:03:23.188Z,15.08
2022-11-09T15:05:52.437Z,14.96
2022-11-09T15:08:23.712Z,14.87
2022-11-09T15:10:53.947Z,14.79
2022-11-09T15:13:30.837Z,14.72
2022-11-09T15:15:59.460Z,14.61
2022-11-09T15:18:33.911Z,14.49
2022-11-09T15:21:13.182Z,14.38
2022-11-09T15:23:42.794Z,14.20
2022-11-09T15:26:27.794Z,14.11
2022-11-09T15:28:56.062Z,13.97
2022-11-09T15:31:25.897Z,13.87
2022-11-09T15:33:56.848Z,13.73
2022-11-09T15:36:29.608Z,13.64
2022-11-09T15:39:04.543Z,13.51
2022-11-09T15:41:32.826Z,13.32
2022-11-09T15:44:00.768Z,13.10
2022-11-09T15:46:34.338Z,12.84
2022-11-09T15:49:15.144Z,12.87
2022-11-09T15:51:43.327Z,12.81
2022-11-09T15:54:11.516Z,12.47
2022-11-09T15:56:39.786Z,12.57
2022-11-09T15:59:08.388Z,12.54
2022-11-09T16:01:36.302Z,12.44
2022-11-09T16:04:05.654Z,12.32
2022-11-09T16:06:33.624Z,12.39
2022-11-09T16:09:01.604Z,12.39
2022-11-09T16:11:29.540Z,12.40
2022-11-09T16:13:57.470Z,12.32
2022-11-09T16:16:25.405Z,12.34
2022-11-09T16:18:53.343Z,12.29
2022-11-09T16:21:22.627Z,12.21
2022-11-09T16:23:54.385Z,12.11
2022-11-09T16:26:26.093Z,12.04
2022-11-09T16:28:55.884Z,11.99
2022-11-09T16:31:50.362Z,11.94
2022-11-09T16:34:11.708Z,11.90
2022-11-09T16:36:47.976Z,11.83
2022-11-09T16:39:18.110Z,11.80
2022-11-09T16:41:48.897Z,11.74
2022-11-09T16:44:21.353Z,11.63
2022-11-09T16:46:49.627Z,11.56
2022-11-09T16:49:17.605Z,11.52
2022-11-09T16:51:46.893Z,11.48
2022-11-09T16:54:14.833Z,11.45
2022-11-09T16:56:42.759Z,11.46
2022-11-09T16:59:10.876Z,11.44
2022-11-09T17:01:38.859Z,11.32
2022-11-09T17:04:07.475Z,11.30
2022-11-09T17:06:35.898Z,11.23
2022-11-09T17:09:05.342Z,11.20
2022-11-09T17:11:33.611Z,11.05
2022-11-09T17:14:02.046Z,11.00
2022-11-09T17:16:30.769Z,10.98
2022-11-09T17:18:59.169Z,10.92
2022-11-09T17:21:28.501Z,10.93
2022-11-09T17:23:57.523Z,10.97
2022-11-09T17:26:27.252Z,10.96
2022-11-09T17:28:55.217Z,10.89
2022-11-09T17:31:26.616Z,10.93
2022-11-09T17:34:00.904Z,10.84
2022-11-09T17:36:49.275Z,10.76
2022-11-09T17:39:17.396Z,10.61
2022-11-09T17:41:46.706Z,10.60
2022-11-09T17:44:14.653Z,10.64
2022-11-09T17:46:42.683Z,10.59
2022-11-09T17:49:10.758Z,10.58
2022-11-09T17:51:39.157Z,10.54
2022-11-09T17:54:07.303Z,10.52
2022-11-09T17:56:35.253Z,10.47
2022-11-09T17:59:05.260Z,10.39
2022-11-09T18:01:39.494Z,10.29
2022-11-09T18:04:10.053Z,10.16
2022-11-09T18:06:38.706Z,10.15
2022-11-09T18:11:54.889Z,9.98
2022-11-09T18:14:24.191Z,9.96
2022-11-09T18:16:52.097Z,9.93
2022-11-09T18:19:20.019Z,9.90
2022-11-09T18:21:48.219Z,9.88
2022-11-09T18:24:16.322Z,9.87
2022-11-09T18:26:44.227Z,9.82
2022-11-09T18:29:12.154Z,9.76
2022-11-09T18:31:41.437Z,9.62
2022-11-09T18:34:09.398Z,9.67
2022-11-09T18:36:37.330Z,9.70
2022-11-09T18:39:05.508Z,9.75
2022-11-09T18:41:33.788Z,9.68
2022-11-09T18:44:02.689Z,9.66
2022-11-09T18:46:33.231Z,9.71
2022-11-09T18:49:02.637Z,9.62
2022-11-09T18:51:30.548Z,9.49
2022-11-09T18:53:58.503Z,9.29
2022-11-09T18:56:26.865Z,9.20
2022-11-09T18:58:56.644Z,9.17
2022-11-09T19:01:27.272Z,9.11
2022-11-09T19:03:59.339Z,9.02
2022-11-09T19:06:29.043Z,8.99
2022-11-09T19:09:14.502Z,8.95
2022-11-09T19:11:42.493Z,8.88
2022-11-09T19:14:11.035Z,8.72
2022-11-09T19:16:39.110Z,8.65
2022-11-09T19:19:07.017Z,8.68
2022-11-09T19:21:42.005Z,8.74
2022-11-09T19:24:13.445Z,8.70
2022-11-09T19:26:41.623Z,8.76
2022-11-09T19:29:10.684Z,8.90
2022-11-09T19:31:41.622Z,8.76
2022-11-09T19:34:09.670Z,8.79
2022-11-09T19:36:39.040Z,9.01
2022-11-09T19:39:07.140Z,9.01
2022-11-09T19:41:35.060Z,9.08
2022-11-09T19:44:03.569Z,9.05
2022-11-09T19:46:33.866Z,9.07
2022-11-09T19:49:03.115Z,9.10
2022-11-09T19:51:31.193Z,9.20
2022-11-09T19:54:01.500Z,9.45
2022-11-09T19:56:31.330Z,9.58
2022-11-09T19:59:00.889Z,9.67
2022-11-09T20:01:30.382Z,9.66
2022-11-09T20:04:00.117Z,9.80
2022-11-09T20:06:28.824Z,9.91
2022-11-09T20:08:57.325Z,9.96
2022-11-09T20:11:50.962Z,9.84
2022-11-09T20:14:20.604Z,9.87
2022-11-09T20:16:49.232Z,9.84
2022-11-09T20:19:17.464Z,9.88
2022-11-09T20:21:45.758Z,9.86
2022-11-09T20:24:14.497Z,10.08
2022-11-09T20:26:44.117Z,10.09
2022-11-09T20:29:12.237Z,10.05
2022-11-09T20:31:40.584Z,10.17
2022-11-09T20:34:08.639Z,10.17
2022-11-09T20:36:36.568Z,10.15
2022-11-09T20:39:04.831Z,9.89
2022-11-09T20:41:33.484Z,9.98
2022-11-09T20:44:02.843Z,9.97
2022-11-09T20:46:35.814Z,9.94
2022-11-09T20:49:05.257Z,9.99
2022-11-09T20:51:33.327Z,9.96
2022-11-09T20:54:06.924Z,10.07
2022-11-09T20:56:37.034Z,10.15
2022-11-09T20:59:06.673Z,10.05
2022-11-09T21:01:34.771Z,10.15
2022-11-09T21:04:03.080Z,10.00
2022-11-09T21:06:31.283Z,9.81
2022-11-09T21:09:01.022Z,9.80
2022-11-09T21:11:35.773Z,9.66
2022-11-09T21:14:04.489Z,9.72
2022-11-09T21:16:33.925Z,9.75
2022-11-09T21:19:01.840Z,9.80
2022-11-09T21:21:35.012Z,9.67
2022-11-09T21:24:22.381Z,9.73
2022-11-09T21:27:07.932Z,9.90
2022-11-09T21:29:53.957Z,9.62
2022-11-09T21:32:24.784Z,9.66
2022-11-09T21:34:53.163Z,9.63
2022-11-09T21:37:21.068Z,9.62
2022-11-09T21:39:48.975Z,9.75
2022-11-09T21:42:16.941Z,9.64
2022-11-09T21:44:44.996Z,9.64
2022-11-09T21:47:13.278Z,9.83
2022-11-09T21:49:42.635Z,9.82
2022-11-09T21:52:10.562Z,9.60
2022-11-09T21:54:39.011Z,9.66
2022-11-09T21:57:06.945Z,9.82
2022-11-09T21:59:34.890Z,9.56
2022-11-09T22:02:02.799Z,9.53
2022-11-09T22:04:30.797Z,9.66
2022-11-09T22:07:00.120Z,9.65
2022-11-09T22:09:35.832Z,9.54
2022-11-09T22:12:30.593Z,9.67
2022-11-09T22:15:16.129Z,9.77
2022-11-09T22:17:44.254Z,9.73
2022-11-09T22:20:29.971Z,9.73
2022-11-09T22:22:59.257Z,9.68
2022-11-09T22:25:27.241Z,9.75
2022-11-09T22:27:55.149Z,9.82
2022-11-09T22:30:23.072Z,9.65
2022-11-09T22:32:51.031Z,9.61
2022-11-09T22:35:19.131Z,9.52
2022-11-09T22:37:47.059Z,9.44
2022-11-09T22:40:18.329Z,9.36
2022-11-09T22:42:46.264Z,9.32
2022-11-09T22:45:14.225Z,9.32
2022-11-09T22:47:42.145Z,9.59
2022-11-09T22:50:10.285Z,9.79
2022-11-09T22:52:38.218Z,9.90
2022-11-09T22:55:06.903Z,9.91
2022-11-09T22:57:37.985Z,9.77
2022-11-09T23:00:07.426Z,9.89
2022-11-09T23:02:35.408Z,9.99
2022-11-09T23:05:03.321Z,9.85
2022-11-09T23:07:31.238Z,9.69
2022-11-09T23:09:59.224Z,9.64
2022-11-09T23:12:27.145Z,9.52
2022-11-09T23:15:05.088Z,9.52
2022-11-09T23:17:51.057Z,9.34
2022-11-09T23:20:19.481Z,9.38
2022-11-09T23:22:47.740Z,9.22
2022-11-09T23:25:33.448Z,9.26
2022-11-09T23:28:01.425Z,9.08
2022-11-09T23:30:30.741Z,9.07
2022-11-09T23:33:01.537Z,9.01
2022-11-09T23:35:29.654Z,9.09
2022-11-09T23:38:00.726Z,9.12
2022-11-09T23:40:29.498Z,9.20
2022-11-09T23:43:01.521Z,9.00
2022-11-09T23:45:30.901Z,8.93
2022-11-09T23:47:58.826Z,8.84
2022-11-09T23:50:26.820Z,8.75
2022-11-09T23:52:57.241Z,8.75
2022-11-09T23:55:25.292Z,8.62
2022-11-09T23:57:53.213Z,8.74
